Terminal Aerodrome Forecast
Issued by NWS

Home | Current Version | Previous Version | Text Only | Print | Product List | Glossary On
Versions: 1 2 3 4 5 6 7 8 9 10 11 12 13 14 15 16 17 18 19
000
FTAK31 PANC 171737
TAFACD
TAF
PACD 171737Z 1718/1818 12033G45KT P6SM -RA SCT020 BKN050 OVC080
      TEMPO 1719/1723 13035G55KT 5SM -RA BKN020 OVC050
     FM172300 13040G60KT 5SM RA BKN015 OVC040
     FM180600 15032G48KT 2SM +RA BKN005 OVC010
     FM180900 18020G32KT 6SM -RA BR SCT005 OVC015
     FM181500 22018G25KT P6SM -RA BKN025 OVC035=

USA.gov is the U.S. government's official web portal to all federal, state and local government web resources and services.